sensor_id;sensor_type;location;lat;lon;timestamp;pressure;altitude;pressure_sealevel;temperature;humidity
54924;BME280;40825;52.270;20.984;2023-08-06T00:00:15;99457.70;;;18.91;100.00
54924;BME280;40825;52.270;20.984;2023-08-06T00:03:00;99448.39;;;18.92;100.00
54924;BME280;40825;52.270;20.984;2023-08-06T00:05:26;99443.21;;;18.93;100.00
54924;BME280;40825;52.270;20.984;2023-08-06T00:07:51;99436.45;;;18.94;100.00
54924;BME280;40825;52.270;20.984;2023-08-06T00:10:17;99441.54;;;18.94;100.00
54924;BME280;40825;52.270;20.984;2023-08-06T00:12:43;99433.04;;;18.95;100.00
54924;BME280;40825;52.270;20.984;2023-08-06T00:15:10;99427.69;;;18.95;100.00
54924;BME280;40825;52.270;20.984;2023-08-06T00:17:36;99429.89;;;18.95;100.00
54924;BME280;40825;52.270;20.984;2023-08-06T00:20:02;99429.67;;;18.96;100.00
54924;BME280;40825;52.270;20.984;2023-08-06T00:22:32;99439.84;;;18.95;100.00
54924;BME280;40825;52.270;20.984;2023-08-06T00:24:57;99450.95;;;18.96;100.00
54924;BME280;40825;52.270;20.984;2023-08-06T00:27:23;99464.08;;;18.91;100.00
54924;BME280;40825;52.270;20.984;2023-08-06T00:29:48;99459.81;;;18.88;100.00
54924;BME280;40825;52.270;20.984;2023-08-06T00:32:14;99458.98;;;18.87;100.00
54924;BME280;40825;52.270;20.984;2023-08-06T00:34:39;99455.43;;;18.86;100.00
54924;BME280;40825;52.270;20.984;2023-08-06T00:37:05;99453.59;;;18.86;100.00
54924;BME280;40825;52.270;20.984;2023-08-06T00:39:30;99442.02;;;18.86;100.00
54924;BME280;40825;52.270;20.984;2023-08-06T00:41:55;99424.92;;;18.86;100.00
54924;BME280;40825;52.270;20.984;2023-08-06T00:44:21;99422.34;;;18.85;100.00
54924;BME280;40825;52.270;20.984;2023-08-06T00:46:47;99422.75;;;18.84;100.00
54924;BME280;40825;52.270;20.984;2023-08-06T00:49:12;99423.30;;;18.82;100.00
54924;BME280;40825;52.270;20.984;2023-08-06T00:51:38;99423.80;;;18.80;100.00
54924;BME280;40825;52.270;20.984;2023-08-06T00:54:03;99408.33;;;18.78;100.00
54924;BME280;40825;52.270;20.984;2023-08-06T00:56:29;99403.02;;;18.77;100.00
54924;BME280;40825;52.270;20.984;2023-08-06T00:58:55;99395.71;;;18.76;100.00
54924;BME280;40825;52.270;20.984;2023-08-06T01:02:36;99375.70;;;18.78;100.00
54924;BME280;40825;52.270;20.984;2023-08-06T01:05:02;99370.25;;;18.74;100.00
54924;BME280;40825;52.270;20.984;2023-08-06T01:07:51;99363.61;;;18.72;100.00
54924;BME280;40825;52.270;20.984;2023-08-06T01:15:44;99335.55;;;18.67;100.00
54924;BME280;40825;52.270;20.984;2023-08-06T01:18:11;99331.92;;;18.66;100.00
54924;BME280;40825;52.270;20.984;2023-08-06T01:20:37;99326.20;;;18.65;100.00
54924;BME280;40825;52.270;20.984;2023-08-06T01:23:02;99323.27;;;18.64;100.00
54924;BME280;40825;52.270;20.984;2023-08-06T01:25:45;99313.33;;;18.63;100.00
54924;BME280;40825;52.270;20.984;2023-08-06T01:28:30;99290.56;;;18.61;100.00
54924;BME280;40825;52.270;20.984;2023-08-06T01:31:01;99269.86;;;18.59;100.00
54924;BME280;40825;52.270;20.984;2023-08-06T01:33:30;99252.08;;;18.58;100.00
54924;BME280;40825;52.270;20.984;2023-08-06T01:35:58;99246.95;;;18.57;100.00
54924;BME280;40825;52.270;20.984;2023-08-06T01:38:24;99241.87;;;18.57;100.00
54924;BME280;40825;52.270;20.984;2023-08-06T01:40:50;99240.19;;;18.56;100.00
54924;BME280;40825;52.270;20.984;2023-08-06T01:43:15;99232.19;;;18.55;100.00
54924;BME280;40825;52.270;20.984;2023-08-06T01:45:41;99224.13;;;18.54;100.00
54924;BME280;40825;52.270;20.984;2023-08-06T01:48:06;99217.55;;;18.55;100.00
54924;BME280;40825;52.270;20.984;2023-08-06T01:50:32;99214.79;;;18.56;100.00
54924;BME280;40825;52.270;20.984;2023-08-06T01:52:57;99204.52;;;18.56;100.00
54924;BME280;40825;52.270;20.984;2023-08-06T01:55:22;99200.79;;;18.55;100.00
54924;BME280;40825;52.270;20.984;2023-08-06T01:57:48;99197.39;;;18.55;100.00
54924;BME280;40825;52.270;20.984;2023-08-06T02:00:13;99189.88;;;18.56;100.00
54924;BME280;40825;52.270;20.984;2023-08-06T02:02:39;99187.39;;;18.57;100.00
54924;BME280;40825;52.270;20.984;2023-08-06T02:05:06;99193.43;;;18.59;100.00
54924;BME280;40825;52.270;20.984;2023-08-06T02:07:32;99193.80;;;18.58;100.00
54924;BME280;40825;52.270;20.984;2023-08-06T02:09:57;99192.78;;;18.58;100.00
54924;BME280;40825;52.270;20.984;2023-08-06T02:12:22;99188.30;;;18.58;100.00
54924;BME280;40825;52.270;20.984;2023-08-06T02:14:48;99180.19;;;18.58;100.00
54924;BME280;40825;52.270;20.984;2023-08-06T02:17:13;99184.30;;;18.57;100.00
54924;BME280;40825;52.270;20.984;2023-08-06T02:19:39;99183.98;;;18.58;100.00
54924;BME280;40825;52.270;20.984;2023-08-06T02:22:04;99175.43;;;18.57;100.00
54924;BME280;40825;52.270;20.984;2023-08-06T02:24:30;99158.46;;;18.58;100.00
54924;BME280;40825;52.270;20.984;2023-08-06T02:26:55;99150.99;;;18.58;100.00
54924;BME280;40825;52.270;20.984;2023-08-06T02:29:21;99148.95;;;18.57;100.00
54924;BME280;40825;52.270;20.984;2023-08-06T02:31:47;99144.95;;;18.58;100.00
54924;BME280;40825;52.270;20.984;2023-08-06T02:34:12;99145.91;;;18.59;100.00
54924;BME280;40825;52.270;20.984;2023-08-06T02:36:38;99145.01;;;18.60;100.00
54924;BME280;40825;52.270;20.984;2023-08-06T02:39:03;99149.54;;;18.61;100.00
54924;BME280;40825;52.270;20.984;2023-08-06T02:41:28;99150.84;;;18.61;100.00
54924;BME280;40825;52.270;20.984;2023-08-06T02:43:54;99152.66;;;18.62;100.00
54924;BME280;40825;52.270;20.984;2023-08-06T02:46:19;99146.92;;;18.63;100.00
54924;BME280;40825;52.270;20.984;2023-08-06T02:48:45;99146.11;;;18.64;100.00
54924;BME280;40825;52.270;20.984;2023-08-06T02:51:10;99142.80;;;18.66;100.00
54924;BME280;40825;52.270;20.984;2023-08-06T02:53:36;99138.27;;;18.66;100.00
54924;BME280;40825;52.270;20.984;2023-08-06T02:56:01;99138.42;;;18.68;100.00
54924;BME280;40825;52.270;20.984;2023-08-06T02:58:27;99134.74;;;18.69;100.00
54924;BME280;40825;52.270;20.984;2023-08-06T03:01:03;99130.67;;;18.71;100.00
54924;BME280;40825;52.270;20.984;2023-08-06T03:03:31;99127.88;;;18.72;100.00
54924;BME280;40825;52.270;20.984;2023-08-06T03:05:57;99125.77;;;18.72;100.00
54924;BME280;40825;52.270;20.984;2023-08-06T03:08:23;99117.70;;;18.73;100.00
54924;BME280;40825;52.270;20.984;2023-08-06T03:10:49;99106.50;;;18.74;100.00
54924;BME280;40825;52.270;20.984;2023-08-06T03:13:18;99095.73;;;18.75;100.00
54924;BME280;40825;52.270;20.984;2023-08-06T03:15:58;99088.91;;;18.76;100.00
54924;BME280;40825;52.270;20.984;2023-08-06T03:18:23;99087.79;;;18.77;100.00
54924;BME280;40825;52.270;20.984;2023-08-06T03:20:51;99084.36;;;18.79;100.00
54924;BME280;40825;52.270;20.984;2023-08-06T03:23:17;99079.86;;;18.81;100.00
54924;BME280;40825;52.270;20.984;2023-08-06T03:25:43;99072.51;;;18.81;100.00
54924;BME280;40825;52.270;20.984;2023-08-06T03:28:09;99069.09;;;18.82;100.00
54924;BME280;40825;52.270;20.984;2023-08-06T03:30:34;99064.16;;;18.83;100.00
54924;BME280;40825;52.270;20.984;2023-08-06T03:33:00;99060.64;;;18.85;100.00
54924;BME280;40825;52.270;20.984;2023-08-06T03:35:25;99059.27;;;18.87;100.00
54924;BME280;40825;52.270;20.984;2023-08-06T03:37:51;99061.82;;;18.88;100.00
54924;BME280;40825;52.270;20.984;2023-08-06T03:40:16;99051.43;;;18.90;100.00
54924;BME280;40825;52.270;20.984;2023-08-06T03:42:42;99046.59;;;18.91;100.00
54924;BME280;40825;52.270;20.984;2023-08-06T03:45:08;99035.71;;;18.93;100.00
54924;BME280;40825;52.270;20.984;2023-08-06T03:47:34;99028.25;;;18.94;100.00
54924;BME280;40825;52.270;20.984;2023-08-06T03:49:59;99020.56;;;18.96;100.00
54924;BME280;40825;52.270;20.984;2023-08-06T03:52:25;99014.01;;;18.97;100.00
54924;BME280;40825;52.270;20.984;2023-08-06T03:54:50;99010.15;;;18.99;100.00
54924;BME280;40825;52.270;20.984;2023-08-06T03:57:15;99003.55;;;19.00;100.00
54924;BME280;40825;52.270;20.984;2023-08-06T03:59:41;98999.93;;;19.01;100.00
54924;BME280;40825;52.270;20.984;2023-08-06T04:02:06;98993.45;;;19.02;100.00
54924;BME280;40825;52.270;20.984;2023-08-06T04:04:32;98986.13;;;19.03;100.00
54924;BME280;40825;52.270;20.984;2023-08-06T04:06:57;98978.22;;;19.04;100.00
54924;BME280;40825;52.270;20.984;2023-08-06T04:09:23;98976.84;;;19.07;100.00
54924;BME280;40825;52.270;20.984;2023-08-06T04:11:48;98967.64;;;19.07;100.00
54924;BME280;40825;52.270;20.984;2023-08-06T04:14:14;98962.29;;;19.08;100.00
54924;BME280;40825;52.270;20.984;2023-08-06T04:16:39;98956.77;;;19.10;100.00
54924;BME280;40825;52.270;20.984;2023-08-06T04:19:04;98957.02;;;19.11;100.00
54924;BME280;40825;52.270;20.984;2023-08-06T04:21:30;98951.92;;;19.13;100.00
54924;BME280;40825;52.270;20.984;2023-08-06T04:23:56;98951.48;;;19.14;100.00
54924;BME280;40825;52.270;20.984;2023-08-06T04:26:22;98947.95;;;19.17;100.00
54924;BME280;40825;52.270;20.984;2023-08-06T04:28:47;98946.41;;;19.18;100.00
54924;BME280;40825;52.270;20.984;2023-08-06T04:31:14;98943.32;;;19.19;100.00
54924;BME280;40825;52.270;20.984;2023-08-06T04:33:39;98939.35;;;19.21;100.00
54924;BME280;40825;52.270;20.984;2023-08-06T04:36:06;98936.30;;;19.23;100.00
54924;BME280;40825;52.270;20.984;2023-08-06T04:38:31;98933.20;;;19.25;100.00
54924;BME280;40825;52.270;20.984;2023-08-06T04:40:57;98931.77;;;19.28;100.00
54924;BME280;40825;52.270;20.984;2023-08-06T04:43:23;98925.46;;;19.30;100.00
54924;BME280;40825;52.270;20.984;2023-08-06T04:45:50;98923.65;;;19.33;100.00
54924;BME280;40825;52.270;20.984;2023-08-06T04:48:17;98926.27;;;19.37;100.00
54924;BME280;40825;52.270;20.984;2023-08-06T04:50:44;98922.98;;;19.40;100.00
54924;BME280;40825;52.270;20.984;2023-08-06T04:53:09;98921.05;;;19.44;100.00
54924;BME280;40825;52.270;20.984;2023-08-06T04:55:35;98917.15;;;19.50;100.00
54924;BME280;40825;52.270;20.984;2023-08-06T04:58:00;98917.02;;;19.54;100.00
54924;BME280;40825;52.270;20.984;2023-08-06T05:00:26;98913.48;;;19.58;100.00
54924;BME280;40825;52.270;20.984;2023-08-06T05:02:51;98909.09;;;19.63;100.00
54924;BME280;40825;52.270;20.984;2023-08-06T05:05:17;98903.00;;;19.68;100.00
54924;BME280;40825;52.270;20.984;2023-08-06T05:07:42;98898.59;;;19.74;100.00
54924;BME280;40825;52.270;20.984;2023-08-06T05:10:08;98899.33;;;19.85;100.00
54924;BME280;40825;52.270;20.984;2023-08-06T05:12:33;98889.30;;;20.00;100.00
54924;BME280;40825;52.270;20.984;2023-08-06T05:14:59;98884.56;;;20.09;100.00
54924;BME280;40825;52.270;20.984;2023-08-06T05:17:24;98879.02;;;20.26;100.00
54924;BME280;40825;52.270;20.984;2023-08-06T05:19:50;98878.69;;;20.38;100.00
54924;BME280;40825;52.270;20.984;2023-08-06T05:22:15;98873.85;;;20.49;100.00
54924;BME280;40825;52.270;20.984;2023-08-06T05:24:41;98869.49;;;20.61;100.00
54924;BME280;40825;52.270;20.984;2023-08-06T05:27:06;98870.39;;;20.72;100.00
54924;BME280;40825;52.270;20.984;2023-08-06T05:29:32;98873.21;;;20.84;100.00
54924;BME280;40825;52.270;20.984;2023-08-06T05:31:57;98868.21;;;20.94;100.00
54924;BME280;40825;52.270;20.984;2023-08-06T05:34:23;98865.73;;;21.02;100.00
54924;BME280;40825;52.270;20.984;2023-08-06T05:36:48;98865.03;;;21.12;100.00
54924;BME280;40825;52.270;20.984;2023-08-06T05:39:13;98860.50;;;21.20;100.00
54924;BME280;40825;52.270;20.984;2023-08-06T05:41:39;98857.36;;;21.27;100.00
54924;BME280;40825;52.270;20.984;2023-08-06T05:44:04;98850.58;;;21.30;100.00
54924;BME280;40825;52.270;20.984;2023-08-06T05:46:30;98847.16;;;21.33;100.00
54924;BME280;40825;52.270;20.984;2023-08-06T05:48:55;98841.89;;;21.33;100.00
54924;BME280;40825;52.270;20.984;2023-08-06T05:51:21;98831.39;;;21.40;100.00
54924;BME280;40825;52.270;20.984;2023-08-06T05:53:46;98825.35;;;21.49;100.00
54924;BME280;40825;52.270;20.984;2023-08-06T05:56:12;98823.27;;;21.56;100.00
54924;BME280;40825;52.270;20.984;2023-08-06T05:58:38;98818.98;;;21.63;100.00
54924;BME280;40825;52.270;20.984;2023-08-06T06:01:03;98815.77;;;21.69;100.00
54924;BME280;40825;52.270;20.984;2023-08-06T06:03:28;98817.17;;;21.78;100.00
54924;BME280;40825;52.270;20.984;2023-08-06T06:05:54;98817.27;;;21.84;100.00
54924;BME280;40825;52.270;20.984;2023-08-06T06:08:19;98814.66;;;21.90;100.00
54924;BME280;40825;52.270;20.984;2023-08-06T06:10:45;98812.23;;;21.97;100.00
54924;BME280;40825;52.270;20.984;2023-08-06T06:13:10;98812.63;;;22.06;100.00
54924;BME280;40825;52.270;20.984;2023-08-06T06:15:36;98807.30;;;22.16;100.00
54924;BME280;40825;52.270;20.984;2023-08-06T06:18:01;98809.27;;;22.22;100.00
54924;BME280;40825;52.270;20.984;2023-08-06T06:20:26;98807.08;;;22.28;100.00
54924;BME280;40825;52.270;20.984;2023-08-06T06:22:52;98803.25;;;22.35;100.00
54924;BME280;40825;52.270;20.984;2023-08-06T06:25:17;98800.70;;;22.49;100.00
54924;BME280;40825;52.270;20.984;2023-08-06T06:27:43;98797.52;;;22.60;100.00
54924;BME280;40825;52.270;20.984;2023-08-06T06:30:08;98795.60;;;22.73;100.00
54924;BME280;40825;52.270;20.984;2023-08-06T06:32:34;98789.23;;;22.85;98.85
54924;BME280;40825;52.270;20.984;2023-08-06T06:35:00;98783.80;;;23.03;98.94
54924;BME280;40825;52.270;20.984;2023-08-06T06:37:25;98785.22;;;23.17;97.12
54924;BME280;40825;52.270;20.984;2023-08-06T06:39:51;98781.48;;;23.27;97.21
54924;BME280;40825;52.270;20.984;2023-08-06T06:42:16;98779.46;;;23.48;99.15
54924;BME280;40825;52.270;20.984;2023-08-06T06:44:42;98779.52;;;23.66;96.34
54924;BME280;40825;52.270;20.984;2023-08-06T06:47:07;98776.08;;;23.80;96.42
54924;BME280;40825;52.270;20.984;2023-08-06T06:49:33;98782.10;;;23.97;99.10
54924;BME280;40825;52.270;20.984;2023-08-06T06:51:58;98772.38;;;24.07;96.93
54924;BME280;40825;52.270;20.984;2023-08-06T06:54:23;98772.23;;;24.16;96.10
54924;BME280;40825;52.270;20.984;2023-08-06T06:56:49;98768.38;;;24.28;93.91
54924;BME280;40825;52.270;20.984;2023-08-06T06:59:14;98771.02;;;24.24;89.04
54924;BME280;40825;52.270;20.984;2023-08-06T07:01:40;98771.59;;;24.23;90.99
54924;BME280;40825;52.270;20.984;2023-08-06T07:04:05;98774.19;;;24.22;87.35
54924;BME280;40825;52.270;20.984;2023-08-06T07:06:31;98776.34;;;24.21;88.30
54924;BME280;40825;52.270;20.984;2023-08-06T07:08:57;98778.21;;;24.23;85.63
54924;BME280;40825;52.270;20.984;2023-08-06T07:11:22;98774.33;;;24.26;84.83
54924;BME280;40825;52.270;20.984;2023-08-06T07:13:50;98769.11;;;24.32;85.25
54924;BME280;40825;52.270;20.984;2023-08-06T07:16:20;98768.08;;;24.49;86.84
54924;BME280;40825;52.270;20.984;2023-08-06T07:18:46;98766.77;;;24.66;87.18
54924;BME280;40825;52.270;20.984;2023-08-06T07:21:11;98767.23;;;24.84;85.61
54924;BME280;40825;52.270;20.984;2023-08-06T07:23:37;98768.77;;;24.91;83.02
54924;BME280;40825;52.270;20.984;2023-08-06T07:26:02;98766.70;;;25.08;82.37
54924;BME280;40825;52.270;20.984;2023-08-06T07:28:28;98765.83;;;25.32;84.31
54924;BME280;40825;52.270;20.984;2023-08-06T07:30:53;98767.50;;;25.43;82.06
54924;BME280;40825;52.270;20.984;2023-08-06T07:33:18;98769.14;;;25.59;80.90
54924;BME280;40825;52.270;20.984;2023-08-06T07:35:44;98769.99;;;25.72;80.25
54924;BME280;40825;52.270;20.984;2023-08-06T07:38:09;98767.45;;;25.81;77.47
54924;BME280;40825;52.270;20.984;2023-08-06T07:40:36;98767.58;;;26.06;81.34
54924;BME280;40825;52.270;20.984;2023-08-06T07:43:03;98765.02;;;26.24;78.00
54924;BME280;40825;52.270;20.984;2023-08-06T07:45:33;98759.19;;;26.34;79.04
54924;BME280;40825;52.270;20.984;2023-08-06T07:47:59;98760.00;;;26.39;75.46
54924;BME280;40825;52.270;20.984;2023-08-06T07:50:24;98757.36;;;26.33;75.61
54924;BME280;40825;52.270;20.984;2023-08-06T07:52:50;98762.12;;;26.30;75.91
54924;BME280;40825;52.270;20.984;2023-08-06T07:55:15;98761.46;;;26.29;75.70
54924;BME280;40825;52.270;20.984;2023-08-06T07:57:41;98759.61;;;26.39;76.38
54924;BME280;40825;52.270;20.984;2023-08-06T08:00:06;98756.44;;;26.59;76.00
54924;BME280;40825;52.270;20.984;2023-08-06T08:02:32;98752.19;;;26.75;74.80
54924;BME280;40825;52.270;20.984;2023-08-06T08:04:57;98747.38;;;26.76;73.46
54924;BME280;40825;52.270;20.984;2023-08-06T08:07:23;98744.35;;;26.74;74.22
54924;BME280;40825;52.270;20.984;2023-08-06T08:09:48;98740.16;;;26.69;74.00
54924;BME280;40825;52.270;20.984;2023-08-06T08:12:14;98740.98;;;26.84;73.90
54924;BME280;40825;52.270;20.984;2023-08-06T08:14:40;98741.80;;;26.94;74.31
54924;BME280;40825;52.270;20.984;2023-08-06T08:17:06;98738.38;;;26.98;74.16
54924;BME280;40825;52.270;20.984;2023-08-06T08:19:32;98739.21;;;27.02;72.14
54924;BME280;40825;52.270;20.984;2023-08-06T08:21:57;98734.63;;;27.00;71.51
54924;BME280;40825;52.270;20.984;2023-08-06T08:24:23;98733.30;;;27.01;71.51
54924;BME280;40825;52.270;20.984;2023-08-06T08:26:50;98732.77;;;27.05;71.36
54924;BME280;40825;52.270;20.984;2023-08-06T08:29:16;98731.55;;;27.07;69.55
54924;BME280;40825;52.270;20.984;2023-08-06T08:31:41;98728.86;;;27.03;69.79
54924;BME280;40825;52.270;20.984;2023-08-06T08:34:08;98726.66;;;27.02;69.97
54924;BME280;40825;52.270;20.984;2023-08-06T08:36:34;98725.76;;;27.09;70.09
54924;BME280;40825;52.270;20.984;2023-08-06T08:38:59;98721.71;;;27.37;70.52
54924;BME280;40825;52.270;20.984;2023-08-06T08:41:30;98716.23;;;27.68;69.65
54924;BME280;40825;52.270;20.984;2023-08-06T08:43:58;98709.19;;;27.80;69.54
54924;BME280;40825;52.270;20.984;2023-08-06T08:46:26;98712.23;;;27.90;67.45
54924;BME280;40825;52.270;20.984;2023-08-06T08:48:53;98709.87;;;28.02;67.12
54924;BME280;40825;52.270;20.984;2023-08-06T08:51:19;98713.73;;;28.22;66.10
54924;BME280;40825;52.270;20.984;2023-08-06T08:53:47;98710.88;;;28.43;67.37
54924;BME280;40825;52.270;20.984;2023-08-06T08:56:15;98707.51;;;28.59;65.44
54924;BME280;40825;52.270;20.984;2023-08-06T08:58:41;98710.07;;;28.81;64.52
54924;BME280;40825;52.270;20.984;2023-08-06T09:01:08;98704.94;;;29.20;63.77
54924;BME280;40825;52.270;20.984;2023-08-06T09:03:34;98697.88;;;29.57;62.44
54924;BME280;40825;52.270;20.984;2023-08-06T09:06:01;98699.13;;;29.72;60.52
54924;BME280;40825;52.270;20.984;2023-08-06T09:08:34;98695.38;;;29.73;60.65
54924;BME280;40825;52.270;20.984;2023-08-06T09:11:01;98689.63;;;29.68;60.36
54924;BME280;40825;52.270;20.984;2023-08-06T09:13:28;98688.35;;;29.76;60.05
54924;BME280;40825;52.270;20.984;2023-08-06T09:15:53;98684.95;;;29.87;59.86
54924;BME280;40825;52.270;20.984;2023-08-06T09:18:29;98679.70;;;29.96;59.18
54924;BME280;40825;52.270;20.984;2023-08-06T09:20:56;98680.77;;;30.29;61.20
54924;BME280;40825;52.270;20.984;2023-08-06T09:23:27;98673.36;;;30.71;60.39
54924;BME280;40825;52.270;20.984;2023-08-06T09:25:55;98671.05;;;30.97;58.08
54924;BME280;40825;52.270;20.984;2023-08-06T09:28:20;98674.45;;;31.20;58.04
54924;BME280;40825;52.270;20.984;2023-08-06T09:30:47;98668.98;;;31.47;57.81
54924;BME280;40825;52.270;20.984;2023-08-06T09:33:18;98665.00;;;31.56;56.04
54924;BME280;40825;52.270;20.984;2023-08-06T09:35:45;98662.92;;;31.48;54.04
54924;BME280;40825;52.270;20.984;2023-08-06T09:38:11;98666.61;;;31.12;55.36
54924;BME280;40825;52.270;20.984;2023-08-06T09:40:38;98665.09;;;30.93;55.87
54924;BME280;40825;52.270;20.984;2023-08-06T09:43:04;98663.92;;;30.63;54.86
54924;BME280;40825;52.270;20.984;2023-08-06T09:45:32;98667.09;;;30.39;54.84
54924;BME280;40825;52.270;20.984;2023-08-06T09:47:59;98662.92;;;30.30;54.81
54924;BME280;40825;52.270;20.984;2023-08-06T09:50:30;98660.23;;;30.67;53.70
54924;BME280;40825;52.270;20.984;2023-08-06T09:52:58;98658.52;;;31.07;53.33
54924;BME280;40825;52.270;20.984;2023-08-06T09:55:24;98654.27;;;31.29;53.07
54924;BME280;40825;52.270;20.984;2023-08-06T09:57:52;98652.73;;;31.37;53.43
54924;BME280;40825;52.270;20.984;2023-08-06T10:00:18;98650.09;;;31.24;52.91
54924;BME280;40825;52.270;20.984;2023-08-06T10:02:43;98652.95;;;30.97;52.78
54924;BME280;40825;52.270;20.984;2023-08-06T10:05:10;98642.05;;;30.88;52.59
54924;BME280;40825;52.270;20.984;2023-08-06T10:07:36;98636.21;;;31.05;52.10
54924;BME280;40825;52.270;20.984;2023-08-06T10:10:04;98635.06;;;31.14;51.36
54924;BME280;40825;52.270;20.984;2023-08-06T10:12:41;98630.67;;;31.27;51.82
54924;BME280;40825;52.270;20.984;2023-08-06T10:15:11;98626.75;;;31.47;50.69
54924;BME280;40825;52.270;20.984;2023-08-06T10:17:38;98630.12;;;31.59;50.98
54924;BME280;40825;52.270;20.984;2023-08-06T10:20:05;98629.61;;;31.63;50.72
54924;BME280;40825;52.270;20.984;2023-08-06T10:22:33;98631.86;;;31.61;50.11
54924;BME280;40825;52.270;20.984;2023-08-06T10:25:00;98628.82;;;31.49;49.09
54924;BME280;40825;52.270;20.984;2023-08-06T10:27:33;98623.46;;;31.50;49.34
54924;BME280;40825;52.270;20.984;2023-08-06T10:30:22;98609.86;;;31.60;48.99
54924;BME280;40825;52.270;20.984;2023-08-06T10:33:02;98604.57;;;31.65;49.22
54924;BME280;40825;52.270;20.984;2023-08-06T10:38:05;98602.11;;;31.29;48.12
54924;BME280;40825;52.270;20.984;2023-08-06T10:40:32;98597.17;;;31.06;48.52
54924;BME280;40825;52.270;20.984;2023-08-06T10:43:03;98594.02;;;31.00;49.66
54924;BME280;40825;52.270;20.984;2023-08-06T10:45:29;98588.23;;;31.02;49.41
54924;BME280;40825;52.270;20.984;2023-08-06T10:47:56;98593.05;;;30.80;49.50
54924;BME280;40825;52.270;20.984;2023-08-06T10:50:24;98589.74;;;30.58;50.39
54924;BME280;40825;52.270;20.984;2023-08-06T10:52:49;98589.97;;;30.47;50.56
54924;BME280;40825;52.270;20.984;2023-08-06T10:55:28;98586.92;;;30.38;50.23
54924;BME280;40825;52.270;20.984;2023-08-06T10:57:55;98584.44;;;30.29;50.26
54924;BME280;40825;52.270;20.984;2023-08-06T11:00:22;98576.98;;;30.20;50.59
54924;BME280;40825;52.270;20.984;2023-08-06T11:02:54;98571.50;;;30.12;50.76
54924;BME280;40825;52.270;20.984;2023-08-06T11:05:20;98567.93;;;29.97;50.54
54924;BME280;40825;52.270;20.984;2023-08-06T11:07:46;98559.52;;;29.96;51.15
54924;BME280;40825;52.270;20.984;2023-08-06T11:10:13;98557.34;;;30.03;51.27
54924;BME280;40825;52.270;20.984;2023-08-06T11:12:39;98552.51;;;30.05;50.93
54924;BME280;40825;52.270;20.984;2023-08-06T11:15:05;98552.05;;;30.02;51.26
54924;BME280;40825;52.270;20.984;2023-08-06T11:17:33;98548.44;;;30.05;51.11
54924;BME280;40825;52.270;20.984;2023-08-06T11:20:03;98541.34;;;30.00;50.75
54924;BME280;40825;52.270;20.984;2023-08-06T11:22:29;98536.20;;;29.88;50.46
54924;BME280;40825;52.270;20.984;2023-08-06T11:24:55;98538.58;;;29.76;50.48
54924;BME280;40825;52.270;20.984;2023-08-06T11:27:20;98532.80;;;29.78;50.37
54924;BME280;40825;52.270;20.984;2023-08-06T11:29:46;98524.97;;;29.70;50.32
54924;BME280;40825;52.270;20.984;2023-08-06T11:32:11;98531.30;;;29.54;50.73
54924;BME280;40825;52.270;20.984;2023-08-06T11:34:38;98528.36;;;29.37;50.55
54924;BME280;40825;52.270;20.984;2023-08-06T11:37:04;98526.61;;;29.23;50.34
54924;BME280;40825;52.270;20.984;2023-08-06T11:39:34;98519.78;;;29.15;50.83
54924;BME280;40825;52.270;20.984;2023-08-06T11:42:02;98519.55;;;29.15;51.01
54924;BME280;40825;52.270;20.984;2023-08-06T11:44:31;98519.13;;;29.13;50.90
54924;BME280;40825;52.270;20.984;2023-08-06T11:46:58;98512.38;;;29.18;50.46
54924;BME280;40825;52.270;20.984;2023-08-06T11:49:39;98515.48;;;29.33;50.53
54924;BME280;40825;52.270;20.984;2023-08-06T11:52:18;98504.81;;;29.45;50.80
54924;BME280;40825;52.270;20.984;2023-08-06T11:55:00;98500.16;;;29.48;50.50
54924;BME280;40825;52.270;20.984;2023-08-06T11:57:30;98496.88;;;29.48;50.50
54924;BME280;40825;52.270;20.984;2023-08-06T12:00:11;98497.16;;;29.52;50.06
54924;BME280;40825;52.270;20.984;2023-08-06T12:02:39;98491.77;;;29.54;50.26
54924;BME280;40825;52.270;20.984;2023-08-06T12:05:16;98491.41;;;29.60;50.30
54924;BME280;40825;52.270;20.984;2023-08-06T12:07:47;98482.70;;;29.65;49.81
54924;BME280;40825;52.270;20.984;2023-08-06T12:10:14;98475.02;;;29.71;48.91
54924;BME280;40825;52.270;20.984;2023-08-06T12:12:40;98480.33;;;29.79;48.53
54924;BME280;40825;52.270;20.984;2023-08-06T12:15:07;98481.63;;;29.77;48.57
54924;BME280;40825;52.270;20.984;2023-08-06T12:17:33;98486.60;;;29.73;48.63
54924;BME280;40825;52.270;20.984;2023-08-06T12:19:59;98488.75;;;29.70;48.50
54924;BME280;40825;52.270;20.984;2023-08-06T12:22:25;98486.77;;;29.64;48.24
54924;BME280;40825;52.270;20.984;2023-08-06T12:24:51;98490.00;;;29.60;48.63
54924;BME280;40825;52.270;20.984;2023-08-06T12:27:16;98481.96;;;29.54;48.91
54924;BME280;40825;52.270;20.984;2023-08-06T12:29:43;98482.55;;;29.48;49.37
54924;BME280;40825;52.270;20.984;2023-08-06T12:32:12;98492.06;;;29.40;49.27
54924;BME280;40825;52.270;20.984;2023-08-06T12:34:38;98474.50;;;29.32;49.60
54924;BME280;40825;52.270;20.984;2023-08-06T12:37:05;98483.20;;;29.27;49.57
54924;BME280;40825;52.270;20.984;2023-08-06T12:39:30;98488.10;;;29.21;50.13
54924;BME280;40825;52.270;20.984;2023-08-06T12:41:56;98483.89;;;29.13;50.51
54924;BME280;40825;52.270;20.984;2023-08-06T12:44:23;98485.80;;;29.03;50.97
54924;BME280;40825;52.270;20.984;2023-08-06T12:46:50;98484.17;;;28.91;51.11
54924;BME280;40825;52.270;20.984;2023-08-06T12:49:18;98475.70;;;28.84;51.46
54924;BME280;40825;52.270;20.984;2023-08-06T12:51:43;98470.19;;;28.76;51.71